Terminal Aerodrome Forecast
Issued by NWS

Home | Current Version | Previous Version | Graphics & Text | Print | Product List | Glossary On
Versions: 1 2 3 4 5 6 7 8 9 10 11 12 13 14 15 16 17 18 19 20
000
FTUS43 KABR 292340
TAFMBG
TAF
KMBG 292340Z 3000/3024 14007KT P6SM -SHRA SCT060 OVC090
     FM300200 17007KT P6SM FEW250
     FM301500 14010KT P6SM VCSH SCT250
     FM301800 15013KT P6SM -SHRA VCTS BKN090CB
     FM302300 02012KT P6SM BKN090=

USA.gov is the U.S. government's official web portal to all federal, state and local government web resources and services.